sensor_id;sensor_type;location;lat;lon;timestamp;P1;durP1;ratioP1;P2;durP2;ratioP2
29902;SDS011;30288;50.514;9.678;2022-12-17T00:00:59;25.65;;;10.63;;
29902;SDS011;30288;50.514;9.678;2022-12-17T00:03:17;23.15;;;10.10;;
29902;SDS011;30288;50.514;9.678;2022-12-17T00:05:36;23.30;;;9.80;;
29902;SDS011;30288;50.514;9.678;2022-12-17T00:07:56;24.08;;;10.82;;
29902;SDS011;30288;50.514;9.678;2022-12-17T00:10:14;25.70;;;10.93;;
29902;SDS011;30288;50.514;9.678;2022-12-17T00:12:35;26.27;;;10.38;;
29902;SDS011;30288;50.514;9.678;2022-12-17T00:14:52;26.55;;;11.15;;
29902;SDS011;30288;50.514;9.678;2022-12-17T00:17:10;25.15;;;11.57;;
29902;SDS011;30288;50.514;9.678;2022-12-17T00:19:27;25.33;;;10.55;;
29902;SDS011;30288;50.514;9.678;2022-12-17T00:21:45;19.95;;;9.85;;
29902;SDS011;30288;50.514;9.678;2022-12-17T00:24:02;29.38;;;10.85;;
29902;SDS011;30288;50.514;9.678;2022-12-17T00:26:20;24.58;;;9.95;;
29902;SDS011;30288;50.514;9.678;2022-12-17T00:28:43;20.33;;;9.30;;
29902;SDS011;30288;50.514;9.678;2022-12-17T00:31:03;20.45;;;9.43;;
29902;SDS011;30288;50.514;9.678;2022-12-17T00:33:20;20.63;;;10.20;;
29902;SDS011;30288;50.514;9.678;2022-12-17T00:35:38;23.48;;;9.35;;
29902;SDS011;30288;50.514;9.678;2022-12-17T00:37:57;24.48;;;10.35;;
29902;SDS011;30288;50.514;9.678;2022-12-17T00:40:14;21.98;;;10.75;;
29902;SDS011;30288;50.514;9.678;2022-12-17T00:42:32;21.20;;;9.45;;
29902;SDS011;30288;50.514;9.678;2022-12-17T00:44:52;21.00;;;9.63;;
29902;SDS011;30288;50.514;9.678;2022-12-17T00:47:10;26.67;;;10.15;;
29902;SDS011;30288;50.514;9.678;2022-12-17T00:49:28;23.35;;;10.23;;
29902;SDS011;30288;50.514;9.678;2022-12-17T00:51:45;24.50;;;10.05;;
29902;SDS011;30288;50.514;9.678;2022-12-17T00:54:03;25.17;;;9.40;;
29902;SDS011;30288;50.514;9.678;2022-12-17T00:56:21;22.42;;;10.63;;
29902;SDS011;30288;50.514;9.678;2022-12-17T00:58:39;22.33;;;10.18;;
29902;SDS011;30288;50.514;9.678;2022-12-17T01:00:59;20.50;;;10.25;;
29902;SDS011;30288;50.514;9.678;2022-12-17T01:03:17;22.33;;;10.02;;
29902;SDS011;30288;50.514;9.678;2022-12-17T01:05:35;24.42;;;9.45;;
29902;SDS011;30288;50.514;9.678;2022-12-17T01:07:54;26.25;;;10.93;;
29902;SDS011;30288;50.514;9.678;2022-12-17T01:10:12;24.00;;;10.10;;
29902;SDS011;30288;50.514;9.678;2022-12-17T01:12:39;21.20;;;9.18;;
29902;SDS011;30288;50.514;9.678;2022-12-17T01:15:06;30.70;;;10.02;;
29902;SDS011;30288;50.514;9.678;2022-12-17T01:17:27;27.98;;;11.20;;
29902;SDS011;30288;50.514;9.678;2022-12-17T01:19:45;25.73;;;9.18;;
29902;SDS011;30288;50.514;9.678;2022-12-17T01:22:03;25.65;;;9.88;;
29902;SDS011;30288;50.514;9.678;2022-12-17T01:24:22;27.27;;;10.32;;
29902;SDS011;30288;50.514;9.678;2022-12-17T01:26:40;20.67;;;9.68;;
29902;SDS011;30288;50.514;9.678;2022-12-17T01:28:57;23.98;;;10.25;;
29902;SDS011;30288;50.514;9.678;2022-12-17T01:31:15;22.00;;;9.45;;
29902;SDS011;30288;50.514;9.678;2022-12-17T01:33:39;21.05;;;9.45;;
29902;SDS011;30288;50.514;9.678;2022-12-17T01:35:57;23.17;;;9.73;;
29902;SDS011;30288;50.514;9.678;2022-12-17T01:38:15;20.45;;;8.80;;
29902;SDS011;30288;50.514;9.678;2022-12-17T01:40:34;26.30;;;9.63;;
29902;SDS011;30288;50.514;9.678;2022-12-17T01:43:00;22.65;;;8.52;;
29902;SDS011;30288;50.514;9.678;2022-12-17T01:45:18;21.50;;;8.55;;
29902;SDS011;30288;50.514;9.678;2022-12-17T01:47:39;32.75;;;9.60;;
29902;SDS011;30288;50.514;9.678;2022-12-17T01:50:03;23.52;;;9.57;;
29902;SDS011;30288;50.514;9.678;2022-12-17T01:52:24;22.02;;;8.75;;
29902;SDS011;30288;50.514;9.678;2022-12-17T01:54:41;24.63;;;9.07;;
29902;SDS011;30288;50.514;9.678;2022-12-17T01:57:00;24.13;;;9.77;;
29902;SDS011;30288;50.514;9.678;2022-12-17T01:59:20;22.65;;;8.65;;
29902;SDS011;30288;50.514;9.678;2022-12-17T02:01:45;29.20;;;9.75;;
29902;SDS011;30288;50.514;9.678;2022-12-17T02:04:03;19.88;;;8.77;;
29902;SDS011;30288;50.514;9.678;2022-12-17T02:06:24;17.92;;;8.52;;
29902;SDS011;30288;50.514;9.678;2022-12-17T02:08:46;30.00;;;9.30;;
29902;SDS011;30288;50.514;9.678;2022-12-17T02:11:17;27.58;;;9.02;;
29902;SDS011;30288;50.514;9.678;2022-12-17T02:13:46;24.48;;;8.73;;
29902;SDS011;30288;50.514;9.678;2022-12-17T02:16:14;17.38;;;7.53;;
29902;SDS011;30288;50.514;9.678;2022-12-17T02:18:41;21.40;;;8.07;;
29902;SDS011;30288;50.514;9.678;2022-12-17T02:21:07;24.15;;;9.00;;
29902;SDS011;30288;50.514;9.678;2022-12-17T02:23:34;19.38;;;7.63;;
29902;SDS011;30288;50.514;9.678;2022-12-17T02:26:05;19.38;;;8.25;;
29902;SDS011;30288;50.514;9.678;2022-12-17T02:28:34;19.60;;;8.32;;
29902;SDS011;30288;50.514;9.678;2022-12-17T02:30:54;22.02;;;8.60;;
29902;SDS011;30288;50.514;9.678;2022-12-17T02:33:12;20.60;;;7.90;;
29902;SDS011;30288;50.514;9.678;2022-12-17T02:35:32;20.83;;;7.88;;
29902;SDS011;30288;50.514;9.678;2022-12-17T02:37:53;18.42;;;7.90;;
29902;SDS011;30288;50.514;9.678;2022-12-17T02:40:11;14.80;;;6.72;;
29902;SDS011;30288;50.514;9.678;2022-12-17T02:42:29;17.80;;;7.25;;
29902;SDS011;30288;50.514;9.678;2022-12-17T02:44:51;19.50;;;7.43;;
29902;SDS011;30288;50.514;9.678;2022-12-17T02:47:09;18.85;;;7.60;;
29902;SDS011;30288;50.514;9.678;2022-12-17T02:49:29;20.00;;;8.23;;
29902;SDS011;30288;50.514;9.678;2022-12-17T02:51:47;28.55;;;9.13;;
29902;SDS011;30288;50.514;9.678;2022-12-17T02:54:06;25.63;;;8.93;;
29902;SDS011;30288;50.514;9.678;2022-12-17T02:56:24;21.73;;;9.02;;
29902;SDS011;30288;50.514;9.678;2022-12-17T02:58:42;24.17;;;9.13;;
29902;SDS011;30288;50.514;9.678;2022-12-17T03:01:09;19.15;;;8.02;;
29902;SDS011;30288;50.514;9.678;2022-12-17T03:03:28;21.95;;;8.77;;
29902;SDS011;30288;50.514;9.678;2022-12-17T03:05:50;26.67;;;9.23;;
29902;SDS011;30288;50.514;9.678;2022-12-17T03:08:08;26.10;;;8.98;;
29902;SDS011;30288;50.514;9.678;2022-12-17T03:10:25;27.20;;;9.77;;
29902;SDS011;30288;50.514;9.678;2022-12-17T03:12:43;27.55;;;10.27;;
29902;SDS011;30288;50.514;9.678;2022-12-17T03:15:00;23.50;;;8.40;;
29902;SDS011;30288;50.514;9.678;2022-12-17T03:17:20;23.75;;;8.40;;
29902;SDS011;30288;50.514;9.678;2022-12-17T03:19:38;22.83;;;9.30;;
29902;SDS011;30288;50.514;9.678;2022-12-17T03:21:55;26.75;;;10.13;;
29902;SDS011;30288;50.514;9.678;2022-12-17T03:24:13;24.40;;;8.85;;
29902;SDS011;30288;50.514;9.678;2022-12-17T03:26:30;21.67;;;9.55;;
29902;SDS011;30288;50.514;9.678;2022-12-17T03:28:48;24.33;;;10.15;;
29902;SDS011;30288;50.514;9.678;2022-12-17T03:31:17;28.80;;;9.70;;
29902;SDS011;30288;50.514;9.678;2022-12-17T03:33:37;27.55;;;10.05;;
29902;SDS011;30288;50.514;9.678;2022-12-17T03:35:55;26.92;;;9.82;;
29902;SDS011;30288;50.514;9.678;2022-12-17T03:38:12;26.02;;;10.40;;
29902;SDS011;30288;50.514;9.678;2022-12-17T03:40:30;30.83;;;9.88;;
29902;SDS011;30288;50.514;9.678;2022-12-17T03:42:47;23.70;;;9.75;;
29902;SDS011;30288;50.514;9.678;2022-12-17T03:45:06;23.80;;;9.25;;
29902;SDS011;30288;50.514;9.678;2022-12-17T03:47:24;24.48;;;9.65;;
29902;SDS011;30288;50.514;9.678;2022-12-17T03:49:45;24.55;;;9.63;;
29902;SDS011;30288;50.514;9.678;2022-12-17T03:52:02;27.20;;;10.82;;
29902;SDS011;30288;50.514;9.678;2022-12-17T03:54:20;33.10;;;10.45;;
29902;SDS011;30288;50.514;9.678;2022-12-17T03:56:37;27.92;;;9.95;;
29902;SDS011;30288;50.514;9.678;2022-12-17T03:58:55;23.80;;;10.27;;
29902;SDS011;30288;50.514;9.678;2022-12-17T04:01:13;25.27;;;9.52;;
29902;SDS011;30288;50.514;9.678;2022-12-17T04:03:30;28.15;;;9.77;;
29902;SDS011;30288;50.514;9.678;2022-12-17T04:05:51;24.25;;;9.82;;
29902;SDS011;30288;50.514;9.678;2022-12-17T04:08:08;30.63;;;10.30;;
29902;SDS011;30288;50.514;9.678;2022-12-17T04:10:26;26.67;;;9.13;;
29902;SDS011;30288;50.514;9.678;2022-12-17T04:12:43;27.38;;;9.82;;
29902;SDS011;30288;50.514;9.678;2022-12-17T04:15:01;26.20;;;10.10;;
29902;SDS011;30288;50.514;9.678;2022-12-17T04:17:19;22.90;;;8.80;;
29902;SDS011;30288;50.514;9.678;2022-12-17T04:19:36;28.45;;;9.98;;
29902;SDS011;30288;50.514;9.678;2022-12-17T04:21:56;27.33;;;10.73;;
29902;SDS011;30288;50.514;9.678;2022-12-17T04:24:15;26.92;;;10.05;;
29902;SDS011;30288;50.514;9.678;2022-12-17T04:26:32;28.05;;;9.65;;
29902;SDS011;30288;50.514;9.678;2022-12-17T04:28:50;25.00;;;10.02;;
29902;SDS011;30288;50.514;9.678;2022-12-17T04:31:08;25.80;;;9.48;;
29902;SDS011;30288;50.514;9.678;2022-12-17T04:33:31;28.35;;;11.07;;
29902;SDS011;30288;50.514;9.678;2022-12-17T04:35:49;26.27;;;9.52;;
29902;SDS011;30288;50.514;9.678;2022-12-17T04:38:08;30.05;;;9.85;;
29902;SDS011;30288;50.514;9.678;2022-12-17T04:40:26;22.20;;;9.07;;
29902;SDS011;30288;50.514;9.678;2022-12-17T04:42:43;24.65;;;9.85;;
29902;SDS011;30288;50.514;9.678;2022-12-17T04:45:12;25.45;;;9.63;;
29902;SDS011;30288;50.514;9.678;2022-12-17T04:47:30;26.80;;;9.90;;
29902;SDS011;30288;50.514;9.678;2022-12-17T04:49:48;24.80;;;9.13;;
29902;SDS011;30288;50.514;9.678;2022-12-17T04:52:05;23.77;;;9.52;;
29902;SDS011;30288;50.514;9.678;2022-12-17T04:54:25;24.27;;;9.40;;
29902;SDS011;30288;50.514;9.678;2022-12-17T04:56:43;22.38;;;9.63;;
29902;SDS011;30288;50.514;9.678;2022-12-17T04:59:00;27.20;;;9.18;;
29902;SDS011;30288;50.514;9.678;2022-12-17T05:01:18;24.90;;;8.65;;
29902;SDS011;30288;50.514;9.678;2022-12-17T05:03:36;21.23;;;8.85;;
29902;SDS011;30288;50.514;9.678;2022-12-17T05:05:54;20.10;;;8.52;;
29902;SDS011;30288;50.514;9.678;2022-12-17T05:08:11;21.58;;;8.35;;
29902;SDS011;30288;50.514;9.678;2022-12-17T05:10:31;23.33;;;8.38;;
29902;SDS011;30288;50.514;9.678;2022-12-17T05:12:54;22.67;;;9.32;;
29902;SDS011;30288;50.514;9.678;2022-12-17T05:15:13;22.83;;;8.60;;
29902;SDS011;30288;50.514;9.678;2022-12-17T05:17:30;23.63;;;9.27;;
29902;SDS011;30288;50.514;9.678;2022-12-17T05:19:48;21.70;;;9.45;;
29902;SDS011;30288;50.514;9.678;2022-12-17T05:22:05;21.67;;;8.00;;
29902;SDS011;30288;50.514;9.678;2022-12-17T05:24:23;20.00;;;8.20;;
29902;SDS011;30288;50.514;9.678;2022-12-17T05:26:42;24.48;;;9.18;;
29902;SDS011;30288;50.514;9.678;2022-12-17T05:29:00;23.50;;;8.75;;
29902;SDS011;30288;50.514;9.678;2022-12-17T05:31:18;23.25;;;8.57;;
29902;SDS011;30288;50.514;9.678;2022-12-17T05:33:35;21.88;;;8.95;;
29902;SDS011;30288;50.514;9.678;2022-12-17T05:35:53;25.75;;;8.48;;
29902;SDS011;30288;50.514;9.678;2022-12-17T05:38:14;21.33;;;8.25;;
29902;SDS011;30288;50.514;9.678;2022-12-17T05:40:31;25.10;;;9.25;;
29902;SDS011;30288;50.514;9.678;2022-12-17T05:42:58;24.52;;;9.15;;
29902;SDS011;30288;50.514;9.678;2022-12-17T05:45:17;25.58;;;9.15;;
29902;SDS011;30288;50.514;9.678;2022-12-17T05:47:35;27.48;;;9.07;;
29902;SDS011;30288;50.514;9.678;2022-12-17T05:49:53;24.77;;;9.38;;
29902;SDS011;30288;50.514;9.678;2022-12-17T05:52:10;24.75;;;8.55;;
29902;SDS011;30288;50.514;9.678;2022-12-17T05:54:27;25.33;;;9.10;;
29902;SDS011;30288;50.514;9.678;2022-12-17T05:56:45;29.08;;;10.07;;
29902;SDS011;30288;50.514;9.678;2022-12-17T05:59:05;26.02;;;8.95;;
29902;SDS011;30288;50.514;9.678;2022-12-17T06:01:23;27.48;;;10.93;;
29902;SDS011;30288;50.514;9.678;2022-12-17T06:03:41;25.63;;;9.43;;
29902;SDS011;30288;50.514;9.678;2022-12-17T06:05:58;28.52;;;10.18;;
29902;SDS011;30288;50.514;9.678;2022-12-17T06:08:16;22.83;;;9.27;;
29902;SDS011;30288;50.514;9.678;2022-12-17T06:10:33;25.13;;;9.68;;
29902;SDS011;30288;50.514;9.678;2022-12-17T06:12:54;29.25;;;9.13;;
29902;SDS011;30288;50.514;9.678;2022-12-17T06:15:14;26.52;;;9.57;;
29902;SDS011;30288;50.514;9.678;2022-12-17T06:17:32;29.85;;;10.38;;
29902;SDS011;30288;50.514;9.678;2022-12-17T06:19:50;30.92;;;10.35;;
29902;SDS011;30288;50.514;9.678;2022-12-17T06:22:07;29.58;;;10.73;;
29902;SDS011;30288;50.514;9.678;2022-12-17T06:24:26;26.88;;;10.27;;
29902;SDS011;30288;50.514;9.678;2022-12-17T06:26:46;27.48;;;10.38;;
29902;SDS011;30288;50.514;9.678;2022-12-17T06:29:04;24.63;;;9.70;;
29902;SDS011;30288;50.514;9.678;2022-12-17T06:31:25;25.92;;;9.73;;
29902;SDS011;30288;50.514;9.678;2022-12-17T06:33:42;28.77;;;10.07;;
29902;SDS011;30288;50.514;9.678;2022-12-17T06:36:00;29.40;;;10.07;;
29902;SDS011;30288;50.514;9.678;2022-12-17T06:38:23;26.85;;;10.15;;
29902;SDS011;30288;50.514;9.678;2022-12-17T06:40:41;29.55;;;10.20;;
29902;SDS011;30288;50.514;9.678;2022-12-17T06:42:59;24.42;;;9.65;;
29902;SDS011;30288;50.514;9.678;2022-12-17T06:45:17;32.67;;;9.85;;
29902;SDS011;30288;50.514;9.678;2022-12-17T06:47:37;24.67;;;9.68;;
29902;SDS011;30288;50.514;9.678;2022-12-17T06:49:54;19.90;;;8.05;;
29902;SDS011;30288;50.514;9.678;2022-12-17T06:52:12;29.30;;;9.43;;
29902;SDS011;30288;50.514;9.678;2022-12-17T06:54:30;24.38;;;9.45;;
29902;SDS011;30288;50.514;9.678;2022-12-17T06:56:48;27.75;;;10.45;;
29902;SDS011;30288;50.514;9.678;2022-12-17T06:59:05;27.60;;;10.07;;
29902;SDS011;30288;50.514;9.678;2022-12-17T07:01:22;23.75;;;10.43;;
29902;SDS011;30288;50.514;9.678;2022-12-17T07:03:43;32.65;;;10.45;;
29902;SDS011;30288;50.514;9.678;2022-12-17T07:06:01;28.83;;;10.55;;
29902;SDS011;30288;50.514;9.678;2022-12-17T07:08:18;28.65;;;10.65;;
29902;SDS011;30288;50.514;9.678;2022-12-17T07:10:36;27.77;;;9.48;;
29902;SDS011;30288;50.514;9.678;2022-12-17T07:12:54;26.17;;;9.70;;
29902;SDS011;30288;50.514;9.678;2022-12-17T07:15:11;25.88;;;10.02;;
29902;SDS011;30288;50.514;9.678;2022-12-17T07:17:29;28.70;;;10.63;;
29902;SDS011;30288;50.514;9.678;2022-12-17T07:19:49;29.60;;;11.10;;
29902;SDS011;30288;50.514;9.678;2022-12-17T07:24:27;25.25;;;9.18;;
29902;SDS011;30288;50.514;9.678;2022-12-17T07:26:45;32.15;;;11.07;;
29902;SDS011;30288;50.514;9.678;2022-12-17T07:29:03;30.10;;;10.10;;
29902;SDS011;30288;50.514;9.678;2022-12-17T07:31:21;36.53;;;11.93;;
29902;SDS011;30288;50.514;9.678;2022-12-17T07:33:39;32.72;;;12.30;;
29902;SDS011;30288;50.514;9.678;2022-12-17T07:36:00;36.80;;;12.45;;
29902;SDS011;30288;50.514;9.678;2022-12-17T07:38:20;36.60;;;12.38;;
29902;SDS011;30288;50.514;9.678;2022-12-17T07:40:37;27.77;;;10.15;;
29902;SDS011;30288;50.514;9.678;2022-12-17T07:42:55;28.58;;;11.77;;
29902;SDS011;30288;50.514;9.678;2022-12-17T07:45:13;27.63;;;10.60;;
29902;SDS011;30288;50.514;9.678;2022-12-17T07:47:30;32.72;;;11.77;;
29902;SDS011;30288;50.514;9.678;2022-12-17T07:49:48;24.27;;;10.05;;
29902;SDS011;30288;50.514;9.678;2022-12-17T07:52:08;30.45;;;10.57;;
29902;SDS011;30288;50.514;9.678;2022-12-17T07:54:25;31.90;;;11.52;;
29902;SDS011;30288;50.514;9.678;2022-12-17T07:56:43;26.20;;;10.32;;
29902;SDS011;30288;50.514;9.678;2022-12-17T07:59:01;29.00;;;10.20;;
29902;SDS011;30288;50.514;9.678;2022-12-17T08:01:19;26.75;;;11.57;;
29902;SDS011;30288;50.514;9.678;2022-12-17T08:03:37;25.27;;;10.75;;
29902;SDS011;30288;50.514;9.678;2022-12-17T08:05:55;24.27;;;9.95;;
29902;SDS011;30288;50.514;9.678;2022-12-17T08:08:16;30.00;;;11.88;;
29902;SDS011;30288;50.514;9.678;2022-12-17T08:10:33;33.35;;;14.20;;
29902;SDS011;30288;50.514;9.678;2022-12-17T08:12:54;37.15;;;15.02;;
29902;SDS011;30288;50.514;9.678;2022-12-17T08:15:14;30.85;;;11.07;;
29902;SDS011;30288;50.514;9.678;2022-12-17T08:17:32;31.10;;;12.00;;
29902;SDS011;30288;50.514;9.678;2022-12-17T08:19:50;25.83;;;10.45;;
29902;SDS011;30288;50.514;9.678;2022-12-17T08:22:07;29.00;;;10.55;;
29902;SDS011;30288;50.514;9.678;2022-12-17T08:24:28;31.85;;;12.38;;
29902;SDS011;30288;50.514;9.678;2022-12-17T08:26:45;29.45;;;11.40;;
29902;SDS011;30288;50.514;9.678;2022-12-17T08:29:03;30.70;;;11.80;;
29902;SDS011;30288;50.514;9.678;2022-12-17T08:31:21;31.88;;;11.82;;
29902;SDS011;30288;50.514;9.678;2022-12-17T08:33:40;34.65;;;13.05;;
29902;SDS011;30288;50.514;9.678;2022-12-17T08:35:57;34.97;;;12.82;;
29902;SDS011;30288;50.514;9.678;2022-12-17T08:38:15;32.42;;;12.43;;
29902;SDS011;30288;50.514;9.678;2022-12-17T08:40:35;38.88;;;15.00;;
29902;SDS011;30288;50.514;9.678;2022-12-17T08:42:55;41.08;;;14.75;;
29902;SDS011;30288;50.514;9.678;2022-12-17T08:45:13;39.47;;;15.20;;
29902;SDS011;30288;50.514;9.678;2022-12-17T08:47:31;41.30;;;11.60;;
29902;SDS011;30288;50.514;9.678;2022-12-17T08:49:49;30.98;;;10.75;;
29902;SDS011;30288;50.514;9.678;2022-12-17T08:52:07;45.40;;;11.90;;
29902;SDS011;30288;50.514;9.678;2022-12-17T08:54:25;36.08;;;10.98;;
29902;SDS011;30288;50.514;9.678;2022-12-17T08:56:45;30.80;;;11.98;;
29902;SDS011;30288;50.514;9.678;2022-12-17T08:59:03;41.08;;;11.65;;
29902;SDS011;30288;50.514;9.678;2022-12-17T09:01:27;42.53;;;11.55;;
29902;SDS011;30288;50.514;9.678;2022-12-17T09:03:45;37.00;;;11.10;;
29902;SDS011;30288;50.514;9.678;2022-12-17T09:06:03;52.47;;;12.05;;
29902;SDS011;30288;50.514;9.678;2022-12-17T09:08:21;48.22;;;11.63;;
29902;SDS011;30288;50.514;9.678;2022-12-17T09:10:39;49.63;;;11.88;;
29902;SDS011;30288;50.514;9.678;2022-12-17T09:13:02;31.45;;;11.30;;
29902;SDS011;30288;50.514;9.678;2022-12-17T09:15:20;42.15;;;11.25;;
29902;SDS011;30288;50.514;9.678;2022-12-17T09:17:37;53.97;;;11.65;;
29902;SDS011;30288;50.514;9.678;2022-12-17T09:19:55;37.35;;;9.88;;
29902;SDS011;30288;50.514;9.678;2022-12-17T09:22:13;45.10;;;10.63;;
29902;SDS011;30288;50.514;9.678;2022-12-17T09:24:31;41.28;;;11.40;;
29902;SDS011;30288;50.514;9.678;2022-12-17T09:26:48;40.33;;;10.73;;
29902;SDS011;30288;50.514;9.678;2022-12-17T09:29:08;35.88;;;10.73;;
29902;SDS011;30288;50.514;9.678;2022-12-17T09:31:26;27.90;;;10.32;;
29902;SDS011;30288;50.514;9.678;2022-12-17T09:33:44;34.35;;;10.63;;
29902;SDS011;30288;50.514;9.678;2022-12-17T09:36:02;45.25;;;10.18;;
29902;SDS011;30288;50.514;9.678;2022-12-17T09:38:21;22.60;;;9.40;;
29902;SDS011;30288;50.514;9.678;2022-12-17T09:40:39;32.28;;;9.75;;
29902;SDS011;30288;50.514;9.678;2022-12-17T09:43:02;30.75;;;10.70;;
29902;SDS011;30288;50.514;9.678;2022-12-17T09:45:35;24.55;;;9.50;;
29902;SDS011;30288;50.514;9.678;2022-12-17T09:48:04;33.83;;;9.85;;
29902;SDS011;30288;50.514;9.678;2022-12-17T09:50:33;25.27;;;10.35;;
29902;SDS011;30288;50.514;9.678;2022-12-17T09:52:50;23.27;;;10.32;;
29902;SDS011;30288;50.514;9.678;2022-12-17T09:55:16;25.48;;;10.75;;
29902;SDS011;30288;50.514;9.678;2022-12-17T09:57:37;23.52;;;9.40;;
29902;SDS011;30288;50.514;9.678;2022-12-17T09:59:54;23.45;;;10.55;;
29902;SDS011;30288;50.514;9.678;2022-12-17T10:02:15;22.70;;;10.07;;
29902;SDS011;30288;50.514;9.678;2022-12-17T10:04:36;31.98;;;12.00;;
29902;SDS011;30288;50.514;9.678;2022-12-17T10:06:58;26.27;;;11.40;;
29902;SDS011;30288;50.514;9.678;2022-12-17T10:09:17;57.95;;;24.17;;
29902;SDS011;30288;50.514;9.678;2022-12-17T10:11:35;26.38;;;11.00;;
29902;SDS011;30288;50.514;9.678;2022-12-17T10:13:53;24.40;;;11.68;;
29902;SDS011;30288;50.514;9.678;2022-12-17T10:16:23;28.15;;;12.65;;
29902;SDS011;30288;50.514;9.678;2022-12-17T10:18:45;27.45;;;10.93;;
29902;SDS011;30288;50.514;9.678;2022-12-17T10:21:04;24.58;;;11.30;;
29902;SDS011;30288;50.514;9.678;2022-12-17T10:23:23;24.73;;;12.38;;
29902;SDS011;30288;50.514;9.678;2022-12-17T10:25:48;32.05;;;13.57;;
29902;SDS011;30288;50.514;9.678;2022-12-17T10:28:09;28.50;;;12.15;;
29902;SDS011;30288;50.514;9.678;2022-12-17T10:30:29;25.25;;;11.70;;
29902;SDS011;30288;50.514;9.678;2022-12-17T10:32:53;26.90;;;11.95;;
29902;SDS011;30288;50.514;9.678;2022-12-17T10:35:15;24.65;;;11.85;;
29902;SDS011;30288;50.514;9.678;2022-12-17T10:37:36;20.70;;;11.73;;
29902;SDS011;30288;50.514;9.678;2022-12-17T10:39:54;24.77;;;12.13;;
29902;SDS011;30288;50.514;9.678;2022-12-17T10:42:18;31.17;;;13.73;;
29902;SDS011;30288;50.514;9.678;2022-12-17T10:44:38;31.02;;;15.07;;
29902;SDS011;30288;50.514;9.678;2022-12-17T10:46:56;32.50;;;16.38;;
29902;SDS011;30288;50.514;9.678;2022-12-17T10:49:15;32.30;;;15.57;;
29902;SDS011;30288;50.514;9.678;2022-12-17T10:51:38;25.23;;;12.90;;
29902;SDS011;30288;50.514;9.678;2022-12-17T10:53:56;26.67;;;12.50;;
29902;SDS011;30288;50.514;9.678;2022-12-17T10:56:18;26.27;;;12.15;;
29902;SDS011;30288;50.514;9.678;2022-12-17T10:58:42;27.00;;;13.00;;
29902;SDS011;30288;50.514;9.678;2022-12-17T11:01:02;22.83;;;10.00;;
29902;SDS011;30288;50.514;9.678;2022-12-17T11:03:23;25.90;;;11.90;;
29902;SDS011;30288;50.514;9.678;2022-12-17T11:05:44;23.75;;;11.43;;
29902;SDS011;30288;50.514;9.678;2022-12-17T11:08:04;24.40;;;11.52;;
29902;SDS011;30288;50.514;9.678;2022-12-17T11:10:23;25.95;;;12.85;;
29902;SDS011;30288;50.514;9.678;2022-12-17T11:12:43;25.05;;;11.82;;
29902;SDS011;30288;50.514;9.678;2022-12-17T11:15:06;26.13;;;12.82;;
29902;SDS011;30288;50.514;9.678;2022-12-17T11:17:37;27.63;;;13.82;;
29902;SDS011;30288;50.514;9.678;2022-12-17T11:19:57;25.10;;;11.57;;
29902;SDS011;30288;50.514;9.678;2022-12-17T11:22:22;27.23;;;12.15;;
29902;SDS011;30288;50.514;9.678;2022-12-17T11:24:51;28.40;;;12.20;;
29902;SDS011;30288;50.514;9.678;2022-12-17T11:27:33;24.48;;;12.77;;
29902;SDS011;30288;50.514;9.678;2022-12-17T11:29:58;25.02;;;12.07;;
29902;SDS011;30288;50.514;9.678;2022-12-17T11:35:15;28.88;;;12.45;;
29902;SDS011;30288;50.514;9.678;2022-12-17T11:37:42;27.45;;;12.02;;
29902;SDS011;30288;50.514;9.678;2022-12-17T11:40:16;24.92;;;12.05;;
29902;SDS011;30288;50.514;9.678;2022-12-17T11:42:46;29.63;;;13.63;;
29902;SDS011;30288;50.514;9.678;2022-12-17T11:45:16;26.30;;;12.82;;
29902;SDS011;30288;50.514;9.678;2022-12-17T11:47:43;32.60;;;12.82;;
29902;SDS011;30288;50.514;9.678;2022-12-17T11:50:12;26.42;;;12.77;;
29902;SDS011;30288;50.514;9.678;2022-12-17T11:52:41;25.55;;;12.35;;
29902;SDS011;30288;50.514;9.678;2022-12-17T11:55:07;26.67;;;13.00;;
29902;SDS011;30288;50.514;9.678;2022-12-17T11:57:36;25.55;;;11.82;;
29902;SDS011;30288;50.514;9.678;2022-12-17T12:00:06;28.55;;;12.05;;
29902;SDS011;30288;50.514;9.678;2022-12-17T12:02:35;31.15;;;12.05;;
29902;SDS011;30288;50.514;9.678;2022-12-17T12:05:09;23.42;;;12.13;;
29902;SDS011;30288;50.514;9.678;2022-12-17T12:07:58;24.65;;;12.38;;
29902;SDS011;30288;50.514;9.678;2022-12-17T12:10:30;24.30;;;12.25;;
29902;SDS011;30288;50.514;9.678;2022-12-17T12:12:59;24.50;;;11.88;;
29902;SDS011;30288;50.514;9.678;2022-12-17T12:15:28;23.88;;;11.63;;
29902;SDS011;30288;50.514;9.678;2022-12-17T12:17:59;24.88;;;12.50;;
29902;SDS011;30288;50.514;9.678;2022-12-17T12:23:30;22.70;;;11.65;;
29902;SDS011;30288;50.514;9.678;2022-12-17T12:26:06;26.23;;;12.57;;
29902;SDS011;30288;50.514;9.678;2022-12-17T12:28:31;24.23;;;11.77;;
29902;SDS011;30288;50.514;9.678;2022-12-17T12:30:58;24.77;;;11.57;;
29902;SDS011;30288;50.514;9.678;2022-12-17T12:33:26;26.23;;;13.10;;
29902;SDS011;30288;50.514;9.678;2022-12-17T12:35:50;28.08;;;11.57;;
29902;SDS011;30288;50.514;9.678;2022-12-17T12:38:15;25.73;;;12.15;;
29902;SDS011;30288;50.514;9.678;2022-12-17T12:40:45;23.52;;;11.35;;
29902;SDS011;30288;50.514;9.678;2022-12-17T12:43:28;26.73;;;12.57;;
29902;SDS011;30288;50.514;9.678;2022-12-17T12:45:51;22.63;;;11.57;;
29902;SDS011;30288;50.514;9.678;2022-12-17T12:48:19;24.48;;;12.38;;
29902;SDS011;30288;50.514;9.678;2022-12-17T12:50:49;25.92;;;13.27;;
29902;SDS011;30288;50.514;9.678;2022-12-17T12:53:13;22.27;;;11.45;;
29902;SDS011;30288;50.514;9.678;2022-12-17T12:55:35;24.75;;;12.65;;
29902;SDS011;30288;50.514;9.678;2022-12-17T13:00:27;23.25;;;12.73;;
29902;SDS011;30288;50.514;9.678;2022-12-17T13:02:50;27.33;;;15.07;;
29902;SDS011;30288;50.514;9.678;2022-12-17T13:05:19;35.17;;;21.27;;
29902;SDS011;30288;50.514;9.678;2022-12-17T13:07:35;25.77;;;15.27;;
29902;SDS011;30288;50.514;9.678;2022-12-17T13:09:46;23.23;;;13.80;;
29902;SDS011;30288;50.514;9.678;2022-12-17T13:11:53;21.38;;;12.82;;
29902;SDS011;30288;50.514;9.678;2022-12-17T13:14:14;23.70;;;13.55;;
29902;SDS011;30288;50.514;9.678;2022-12-17T13:16:29;24.13;;;13.45;;
29902;SDS011;30288;50.514;9.678;2022-12-17T13:18:43;23.15;;;14.13;;
29902;SDS011;30288;50.514;9.678;2022-12-17T13:20:59;24.27;;;14.98;;
29902;SDS011;30288;50.514;9.678;2022-12-17T13:23:14;23.08;;;14.30;;
29902;SDS011;30288;50.514;9.678;2022-12-17T13:25:31;26.73;;;16.48;;
29902;SDS011;30288;50.514;9.678;2022-12-17T13:27:37;24.77;;;15.90;;
29902;SDS011;30288;50.514;9.678;2022-12-17T13:29:43;26.20;;;16.15;;
29902;SDS011;30288;50.514;9.678;2022-12-17T13:31:54;25.75;;;17.30;;
29902;SDS011;30288;50.514;9.678;2022-12-17T13:34:14;29.42;;;17.02;;
29902;SDS011;30288;50.514;9.678;2022-12-17T13:36:28;25.25;;;16.50;;
29902;SDS011;30288;50.514;9.678;2022-12-17T13:40:56;27.52;;;16.88;;
29902;SDS011;30288;50.514;9.678;2022-12-17T13:43:14;28.40;;;17.17;;
29902;SDS011;30288;50.514;9.678;2022-12-17T13:45:22;28.95;;;17.35;;
29902;SDS011;30288;50.514;9.678;2022-12-17T13:47:33;25.45;;;16.77;;
29902;SDS011;30288;50.514;9.678;2022-12-17T13:49:38;23.67;;;15.52;;
29902;SDS011;30288;50.514;9.678;2022-12-17T13:51:44;23.75;;;14.68;;
29902;SDS011;30288;50.514;9.678;2022-12-17T13:53:50;25.23;;;15.13;;
29902;SDS011;30288;50.514;9.678;2022-12-17T13:55:58;24.23;;;15.30;;